X  Cerrar Datos meteorológicos de aviación METAR     LEGR F.G.L. Airport Granada-Jaén Airport
Temperatura
20°C Temperatura
9°C Punto de rocío
49% Humedad



Viento
2 KM/H
1 MPH
0 M/S
1 NUDO



Calma
N
Condiciones actuales

Claro Claro
Presión 1022.01 (hPa) - 30.18 (inHg)
Visibilidad 6 (milla) - 9.7 (km)
Aeropuerto
Código de aeropuerto LEGR

localidad: F.G.L. Airport Granada-Jaén Airport
Distancia: 138 (km)

Metar:
LEGR 210800Z VRB01KT CAVOK 20/09 Q1022

Hora: 21-06-2024 10:00 CEST